Time,TemperatureF,DewpointF,PressureIn,WindDirection,WindDirectionDegrees,WindSpeedMPH,WindSpeedGustMPH,Humidity,HourlyPrecipIn,Conditions,Clouds,dailyrainin,SolarRadiationWatts/m^2,SoftwareType,DateUTC
2013-09-22 00:00:00,73.9,69.4,29.76,NNE,15,2.9,2.9,86,0.00,,,-99.99,0.0,meteobridge,2013-09-22 05:00:00,
2013-09-22 00:05:00,73.9,69.4,29.76,NNE,22,2.0,4.0,86,0.00,,,0.00,0.0,meteobridge,2013-09-22 05:05:00,
2013-09-22 00:10:00,73.9,69.4,29.76,NNE,19,2.0,2.9,86,0.00,,,0.00,0.0,meteobridge,2013-09-22 05:10:00,
2013-09-22 00:16:00,73.9,69.4,29.76,NNE,17,2.0,4.0,86,0.00,,,0.00,0.0,meteobridge,2013-09-22 05:16:00,
2013-09-22 00:21:00,73.9,69.4,29.76,NNE,15,2.9,4.9,86,0.00,,,0.00,0.0,meteobridge,2013-09-22 05:21:00,
2013-09-22 00:26:00,74.1,69.6,29.76,NNE,17,2.9,4.9,86,0.00,,,0.00,0.0,meteobridge,2013-09-22 05:26:00,
2013-09-22 00:31:00,74.1,69.3,29.75,North,5,4.0,6.0,85,0.00,,,0.00,0.0,meteobridge,2013-09-22 05:31:00,
2013-09-22 00:36:00,74.3,69.4,29.75,NNE,12,4.9,6.0,85,0.00,,,0.00,0.0,meteobridge,2013-09-22 05:36:00,
2013-09-22 00:41:00,74.5,69.6,29.75,NNE,17,2.9,6.0,85,0.00,,,0.00,0.0,meteobridge,2013-09-22 05:41:00,
2013-09-22 00:46:00,74.7,69.8,29.75,North,5,4.9,6.9,85,0.00,,,0.00,0.0,meteobridge,2013-09-22 05:46:00,
2013-09-22 00:51:00,74.7,69.8,29.75,North,11,4.9,6.9,85,0.00,,,0.00,0.0,meteobridge,2013-09-22 05:51:00,
2013-09-22 00:56:00,74.7,69.8,29.75,North,5,4.9,6.9,85,0.00,,,0.00,0.0,meteobridge,2013-09-22 05:56:00,
2013-09-22 01:01:00,74.8,69.6,29.75,North,355,6.9,6.9,84,0.00,,,0.00,0.0,meteobridge,2013-09-22 06:01:00,
2013-09-22 01:06:00,74.8,69.6,29.75,North,5,4.0,8.1,84,0.00,,,0.00,0.0,meteobridge,2013-09-22 06:06:00,
2013-09-22 01:11:00,74.8,69.6,29.75,North,355,6.0,6.0,84,0.00,,,0.00,0.0,meteobridge,2013-09-22 06:11:00,
2013-09-22 01:16:00,74.8,69.6,29.75,North,5,4.9,8.1,84,0.00,,,0.00,0.0,meteobridge,2013-09-22 06:16:00,
2013-09-22 01:21:00,74.8,69.6,29.75,North,0,8.9,8.9,84,0.00,,,0.00,0.0,meteobridge,2013-09-22 06:21:00,
2013-09-22 01:26:00,74.8,70.0,29.75,NNE,13,4.0,6.0,85,0.00,,,0.00,0.0,meteobridge,2013-09-22 06:26:00,
2013-09-22 01:31:00,74.8,69.6,29.75,North,9,4.9,6.9,84,0.00,,,0.00,0.0,meteobridge,2013-09-22 06:31:00,
2013-09-22 01:36:00,74.5,69.3,29.75,North,355,6.0,6.9,84,0.00,,,0.00,0.0,meteobridge,2013-09-22 06:36:00,
2013-09-22 01:42:00,74.1,68.9,29.75,North,11,4.9,6.0,84,0.00,,,0.00,0.0,meteobridge,2013-09-22 06:42:00,
2013-09-22 01:47:00,73.9,69.1,29.75,North,9,4.9,6.9,85,0.00,,,0.00,0.0,meteobridge,2013-09-22 06:47:00,
2013-09-22 01:52:00,73.8,68.9,29.75,North,5,4.9,6.0,85,0.00,,,0.00,0.0,meteobridge,2013-09-22 06:52:00,
2013-09-22 01:57:00,73.6,69.1,29.75,North,355,6.0,6.0,86,0.00,,,0.00,0.0,meteobridge,2013-09-22 06:57:00,
2013-09-22 02:02:00,73.4,68.9,29.75,North,5,2.9,4.9,86,0.00,,,0.00,0.0,meteobridge,2013-09-22 07:02:00,
2013-09-22 02:07:00,73.2,69.1,29.75,NNE,13,6.0,8.1,87,0.00,,,0.00,0.0,meteobridge,2013-09-22 07:07:00,
2013-09-22 02:12:00,73.0,68.9,29.75,NNE,12,4.9,8.1,87,0.00,,,0.00,0.0,meteobridge,2013-09-22 07:12:00,
2013-09-22 02:17:00,73.0,68.9,29.75,North,5,6.9,8.1,87,0.00,,,0.00,0.0,meteobridge,2013-09-22 07:17:00,
2013-09-22 02:22:00,73.0,68.9,29.75,North,0,4.9,6.9,87,0.00,,,0.00,0.0,meteobridge,2013-09-22 07:22:00,
2013-09-22 02:27:00,73.2,69.1,29.75,North,11,8.1,8.9,87,0.00,,,0.00,0.0,meteobridge,2013-09-22 07:27:00,
2013-09-22 02:32:00,73.2,69.1,29.75,North,355,6.9,6.9,87,0.00,,,0.00,0.0,meteobridge,2013-09-22 07:32:00,
2013-09-22 02:37:00,73.4,69.3,29.75,North,355,6.0,8.9,87,0.00,,,0.00,0.0,meteobridge,2013-09-22 07:37:00,
2013-09-22 02:42:00,73.6,69.4,29.75,North,5,4.0,8.1,87,0.00,,,0.00,0.0,meteobridge,2013-09-22 07:42:00,
2013-09-22 02:47:00,73.2,69.1,29.75,North,9,6.0,8.1,87,0.00,,,0.00,0.0,meteobridge,2013-09-22 07:47:00,
2013-09-22 02:52:00,73.0,68.9,29.75,North,0,4.9,6.9,87,0.00,,,0.00,0.0,meteobridge,2013-09-22 07:52:00,
2013-09-22 02:57:00,72.9,68.7,29.75,North,5,4.0,8.1,87,0.00,,,0.00,0.0,meteobridge,2013-09-22 07:57:00,
2013-09-22 03:02:00,72.5,68.4,29.75,North,5,4.0,6.9,87,0.00,,,0.00,0.0,meteobridge,2013-09-22 08:02:00,
2013-09-22 03:07:00,72.3,68.2,29.75,North,9,4.9,6.9,87,0.00,,,0.00,0.0,meteobridge,2013-09-22 08:07:00,
2013-09-22 03:12:00,72.1,68.4,29.75,North,10,6.0,6.9,88,0.00,,,0.00,0.0,meteobridge,2013-09-22 08:12:00,
2013-09-22 03:17:00,72.0,68.2,29.74,North,5,4.9,6.9,88,0.00,,,0.00,0.0,meteobridge,2013-09-22 08:17:00,
2013-09-22 03:22:00,71.8,68.4,29.74,North,9,4.0,6.0,89,0.00,,,0.00,0.0,meteobridge,2013-09-22 08:22:00,
2013-09-22 03:27:00,71.8,68.4,29.74,North,0,6.0,8.1,89,0.00,,,0.00,0.0,meteobridge,2013-09-22 08:27:00,
2013-09-22 03:33:00,71.8,68.4,29.74,NNE,17,6.0,8.1,89,0.00,,,0.00,0.0,meteobridge,2013-09-22 08:33:00,
2013-09-22 03:38:00,71.8,68.4,29.74,NNE,13,10.1,10.1,89,0.00,,,0.00,0.0,meteobridge,2013-09-22 08:38:00,
2013-09-22 03:43:00,71.6,68.2,29.74,North,9,4.9,8.9,89,0.00,,,0.00,0.0,meteobridge,2013-09-22 08:43:00,
2013-09-22 03:48:00,71.6,68.2,29.74,North,5,4.9,8.1,89,0.00,,,0.00,0.0,meteobridge,2013-09-22 08:48:00,
2013-09-22 03:53:00,71.4,68.0,29.74,NNE,20,4.9,8.9,89,0.00,,,0.00,0.0,meteobridge,2013-09-22 08:53:00,
2013-09-22 03:58:00,71.4,68.0,29.74,North,5,4.9,8.9,89,0.00,,,0.00,0.0,meteobridge,2013-09-22 08:58:00,
2013-09-22 04:03:00,71.2,67.8,29.74,North,5,6.0,8.1,89,0.00,,,0.00,0.0,meteobridge,2013-09-22 09:03:00,
2013-09-22 04:08:00,71.2,67.8,29.74,North,0,8.1,8.9,89,0.00,,,0.00,0.0,meteobridge,2013-09-22 09:08:00,
2013-09-22 04:13:00,71.1,68.0,29.74,North,9,6.9,8.9,90,0.00,,,0.00,0.0,meteobridge,2013-09-22 09:13:00,
2013-09-22 04:18:00,71.1,67.6,29.73,NNE,17,6.9,8.9,89,0.00,,,0.00,0.0,meteobridge,2013-09-22 09:18:00,
2013-09-22 04:23:00,71.1,67.6,29.73,North,5,4.9,6.9,89,0.00,,,0.00,0.0,meteobridge,2013-09-22 09:23:00,
2013-09-22 04:28:00,70.9,67.8,29.73,North,355,6.9,8.9,90,0.00,,,0.00,0.0,meteobridge,2013-09-22 09:28:00,
2013-09-22 04:33:00,70.7,67.3,29.73,North,0,6.9,8.1,89,0.00,,,0.00,0.0,meteobridge,2013-09-22 09:33:00,
2013-09-22 04:38:00,70.5,67.1,29.73,North,5,6.9,8.1,89,0.00,,,0.00,0.0,meteobridge,2013-09-22 09:38:00,
2013-09-22 04:43:00,70.5,67.5,29.73,NNE,13,6.0,8.1,90,0.00,,,0.00,0.0,meteobridge,2013-09-22 09:43:00,
2013-09-22 04:48:00,70.3,67.3,29.72,North,5,4.9,8.1,90,0.00,,,0.00,0.0,meteobridge,2013-09-22 09:48:00,
2013-09-22 04:53:00,70.3,67.3,29.72,North,355,6.9,8.1,90,0.00,,,0.00,0.0,meteobridge,2013-09-22 09:53:00,
2013-09-22 04:58:00,70.3,67.3,29.72,NNE,13,6.9,8.9,90,0.00,,,0.00,0.0,meteobridge,2013-09-22 09:58:00,
2013-09-22 05:03:00,70.2,67.1,29.72,North,5,4.9,8.1,90,0.00,,,0.00,0.0,meteobridge,2013-09-22 10:03:00,
2013-09-22 05:08:00,70.2,67.1,29.72,NNE,18,4.0,8.9,90,0.00,,,0.00,0.0,meteobridge,2013-09-22 10:08:00,
2013-09-22 05:13:00,70.0,66.9,29.72,NNE,22,6.0,8.9,90,0.00,,,0.00,0.0,meteobridge,2013-09-22 10:13:00,
2013-09-22 05:18:00,69.8,66.7,29.72,North,5,6.9,11.0,90,0.00,,,0.00,0.0,meteobridge,2013-09-22 10:18:00,
2013-09-22 05:23:00,69.6,66.6,29.72,NNE,15,6.0,8.1,90,0.00,,,0.00,0.0,meteobridge,2013-09-22 10:23:00,
2013-09-22 05:29:00,69.6,66.6,29.72,NNE,26,6.9,10.1,90,0.00,,,0.00,0.0,meteobridge,2013-09-22 10:29:00,
2013-09-22 05:34:00,69.6,66.6,29.72,NNE,32,8.1,8.1,90,0.00,,,0.00,0.0,meteobridge,2013-09-22 10:34:00,
2013-09-22 05:39:00,69.4,66.0,29.72,NNE,15,4.9,6.9,89,0.00,,,0.00,0.0,meteobridge,2013-09-22 10:39:00,
2013-09-22 05:44:00,69.4,66.0,29.73,NNE,17,6.9,10.1,89,0.00,,,0.00,0.0,meteobridge,2013-09-22 10:44:00,
2013-09-22 05:49:00,69.3,65.8,29.73,NNE,17,4.9,8.9,89,0.00,,,0.00,0.0,meteobridge,2013-09-22 10:49:00,
2013-09-22 05:54:00,69.1,65.7,29.73,North,355,6.9,10.1,89,0.00,,,0.00,0.0,meteobridge,2013-09-22 10:54:00,
2013-09-22 05:59:00,69.1,65.7,29.74,NE,37,2.9,8.1,89,0.00,,,0.00,0.0,meteobridge,2013-09-22 10:59:00,
2013-09-22 06:04:00,68.7,65.3,29.74,NNE,30,4.9,6.9,89,0.00,,,0.00,0.0,meteobridge,2013-09-22 11:04:00,
2013-09-22 06:09:00,68.5,65.1,29.74,NNE,22,4.0,8.1,89,0.00,,,0.00,0.0,meteobridge,2013-09-22 11:09:00,
2013-09-22 06:14:00,68.5,65.1,29.74,NNE,13,6.0,8.1,89,0.00,,,0.00,0.0,meteobridge,2013-09-22 11:14:00,
2013-09-22 06:19:00,68.4,64.6,29.74,North,5,4.9,6.9,88,0.00,,,0.00,0.0,meteobridge,2013-09-22 11:19:00,
2013-09-22 06:24:00,68.4,64.6,29.74,NNE,21,4.9,6.9,88,0.00,,,0.00,0.0,meteobridge,2013-09-22 11:24:00,
2013-09-22 06:29:00,68.2,64.4,29.74,NNE,15,4.9,6.9,88,0.00,,,0.00,0.0,meteobridge,2013-09-22 11:29:00,
2013-09-22 06:34:00,68.2,64.4,29.74,North,355,6.0,8.1,88,0.00,,,0.00,0.0,meteobridge,2013-09-22 11:34:00,
2013-09-22 06:39:00,68.0,64.4,29.74,NNE,19,4.0,6.9,88,0.00,,,0.00,0.0,meteobridge,2013-09-22 11:39:00,
2013-09-22 06:44:00,67.8,64.2,29.74,NNE,18,4.0,6.9,88,0.00,,,0.00,0.0,meteobridge,2013-09-22 11:44:00,
2013-09-22 06:49:00,67.6,64.0,29.74,NNE,22,4.0,4.9,88,0.00,,,0.00,0.0,meteobridge,2013-09-22 11:49:00,
2013-09-22 06:54:00,67.5,63.9,29.74,NNE,12,4.9,6.9,88,0.00,,,0.00,0.0,meteobridge,2013-09-22 11:54:00,
2013-09-22 06:59:00,67.5,63.9,29.74,NNE,25,4.9,6.9,88,0.00,,,0.00,0.0,meteobridge,2013-09-22 11:59:00,
2013-09-22 07:04:00,67.3,63.7,29.74,NNE,32,6.0,6.9,88,0.00,,,0.00,0.0,meteobridge,2013-09-22 12:04:00,
2013-09-22 07:10:00,67.1,63.5,29.74,NNE,22,2.9,6.0,88,0.00,,,0.00,0.0,meteobridge,2013-09-22 12:10:00,
2013-09-22 07:15:00,66.9,63.3,29.75,North,0,4.9,6.9,88,0.00,,,0.00,5.0,meteobridge,2013-09-22 12:15:00,
2013-09-22 07:20:00,66.9,63.3,29.75,NNE,28,2.9,6.9,88,0.00,,,0.00,7.0,meteobridge,2013-09-22 12:20:00,
2013-09-22 07:25:00,66.7,63.1,29.75,NNE,14,4.0,6.9,88,0.00,,,0.00,11.0,meteobridge,2013-09-22 12:25:00,
2013-09-22 07:30:00,66.7,63.1,29.75,NNE,13,4.0,6.9,88,0.00,,,0.00,14.0,meteobridge,2013-09-22 12:30:00,
2013-09-22 07:35:00,66.7,63.3,29.75,NNE,22,2.0,6.0,89,0.00,,,0.00,16.0,meteobridge,2013-09-22 12:35:00,
2013-09-22 07:40:00,66.6,63.1,29.75,NNE,15,4.0,6.0,89,0.00,,,0.00,21.0,meteobridge,2013-09-22 12:40:00,
2013-09-22 07:45:00,66.7,63.1,29.75,North,9,4.0,6.0,88,0.00,,,0.00,39.0,meteobridge,2013-09-22 12:45:00,
2013-09-22 07:50:00,66.7,63.1,29.75,NNE,23,4.9,6.9,88,0.00,,,0.00,54.0,meteobridge,2013-09-22 12:50:00,
2013-09-22 07:55:00,67.1,63.5,29.75,NNE,16,4.0,8.9,88,0.00,,,0.00,70.0,meteobridge,2013-09-22 12:55:00,
2013-09-22 08:00:00,67.3,63.3,29.76,North,0,4.0,6.0,87,0.00,,,0.00,88.0,meteobridge,2013-09-22 13:00:00,
2013-09-22 08:05:00,67.5,63.5,29.76,NNE,24,6.0,6.9,87,0.00,,,0.00,107.0,meteobridge,2013-09-22 13:05:00,
2013-09-22 08:10:00,67.6,63.7,29.76,NNE,19,4.9,8.1,87,0.00,,,0.00,130.0,meteobridge,2013-09-22 13:10:00,
2013-09-22 08:15:00,67.8,63.5,29.77,NNE,19,4.9,6.0,86,0.00,,,0.00,151.0,meteobridge,2013-09-22 13:15:00,
2013-09-22 08:20:00,68.2,63.9,29.77,NNE,27,6.9,6.9,86,0.00,,,0.00,174.0,meteobridge,2013-09-22 13:20:00,
2013-09-22 08:25:00,68.4,63.7,29.77,NNE,18,4.0,6.9,85,0.00,,,0.00,197.0,meteobridge,2013-09-22 13:25:00,
2013-09-22 08:30:00,68.7,64.0,29.77,NE,35,4.0,6.9,85,0.00,,,0.00,221.0,meteobridge,2013-09-22 13:30:00,
2013-09-22 08:35:00,69.1,63.7,29.77,North,0,4.9,8.9,83,0.00,,,0.00,239.0,meteobridge,2013-09-22 13:35:00,
2013-09-22 08:40:00,69.4,64.0,29.77,NE,53,2.9,6.9,83,0.00,,,0.00,260.0,meteobridge,2013-09-22 13:40:00,
2013-09-22 08:45:00,69.6,63.9,29.77,NNE,18,4.0,6.9,82,0.00,,,0.00,279.0,meteobridge,2013-09-22 13:45:00,
2013-09-22 08:50:00,70.0,63.9,29.77,NNE,28,2.0,8.9,81,0.00,,,0.00,299.0,meteobridge,2013-09-22 13:50:00,
2013-09-22 08:55:00,70.3,63.9,29.77,North,355,6.9,6.9,80,0.00,,,0.00,318.0,meteobridge,2013-09-22 13:55:00,
2013-09-22 09:00:00,70.5,63.7,29.77,NNE,19,8.1,12.1,79,0.00,,,0.00,338.0,meteobridge,2013-09-22 14:00:00,
2013-09-22 09:06:00,70.7,63.9,29.77,NNE,12,6.0,10.1,79,0.00,,,0.00,355.0,meteobridge,2013-09-22 14:06:00,
2013-09-22 09:11:00,71.2,64.4,29.77,NNE,13,4.9,8.1,79,0.00,,,0.00,376.0,meteobridge,2013-09-22 14:11:00,
2013-09-22 09:16:00,71.8,64.2,29.78,NNE,31,6.9,11.0,77,0.00,,,0.00,394.0,meteobridge,2013-09-22 14:16:00,
2013-09-22 09:21:00,72.1,64.6,29.78,NNE,25,2.9,6.9,77,0.00,,,0.00,411.0,meteobridge,2013-09-22 14:21:00,
2013-09-22 09:26:00,72.3,64.4,29.78,NE,55,2.0,4.9,76,0.00,,,0.00,431.0,meteobridge,2013-09-22 14:26:00,
2013-09-22 09:31:00,72.7,64.2,29.78,NE,43,2.0,4.9,75,0.00,,,0.00,446.0,meteobridge,2013-09-22 14:31:00,
2013-09-22 09:36:00,73.0,64.6,29.78,NE,40,2.9,6.0,75,0.00,,,0.00,469.0,meteobridge,2013-09-22 14:36:00,
2013-09-22 09:41:00,73.0,64.2,29.78,NE,53,2.0,6.9,74,0.00,,,0.00,487.0,meteobridge,2013-09-22 14:41:00,
2013-09-22 09:46:00,73.6,64.8,29.78,North,5,2.9,6.9,74,0.00,,,0.00,501.0,meteobridge,2013-09-22 14:46:00,
2013-09-22 09:51:00,73.9,64.4,29.78,NE,53,2.0,4.0,72,0.00,,,0.00,519.0,meteobridge,2013-09-22 14:51:00,
2013-09-22 09:56:00,74.3,64.8,29.78,NNE,19,2.9,4.9,72,0.00,,,0.00,536.0,meteobridge,2013-09-22 14:56:00,
2013-09-22 10:01:00,74.7,64.6,29.78,NNE,28,2.9,6.0,71,0.00,,,0.00,555.0,meteobridge,2013-09-22 15:01:00,
2013-09-22 10:06:00,75.0,64.6,29.78,NNE,24,4.9,8.1,70,0.00,,,0.00,570.0,meteobridge,2013-09-22 15:06:00,
2013-09-22 10:11:00,75.6,64.8,29.78,NNE,22,2.9,8.1,69,0.00,,,0.00,585.0,meteobridge,2013-09-22 15:11:00,
2013-09-22 10:16:00,75.6,64.2,29.78,NNE,13,6.9,10.1,68,0.00,,,0.00,601.0,meteobridge,2013-09-22 15:16:00,
2013-09-22 10:21:00,75.7,64.4,29.78,NE,49,4.0,8.1,68,0.00,,,0.00,619.0,meteobridge,2013-09-22 15:21:00,
2013-09-22 10:26:00,76.3,64.6,29.78,NE,34,2.0,8.9,67,0.00,,,0.00,636.0,meteobridge,2013-09-22 15:26:00,
2013-09-22 10:31:00,76.3,64.0,29.78,NNE,21,10.1,11.0,66,0.00,,,0.00,647.0,meteobridge,2013-09-22 15:31:00,
2013-09-22 10:36:00,76.6,64.9,29.78,NE,51,4.9,8.9,67,0.00,,,0.00,663.0,meteobridge,2013-09-22 15:36:00,
2013-09-22 10:41:00,77.2,65.3,29.78,NE,56,2.9,8.1,67,0.00,,,0.00,679.0,meteobridge,2013-09-22 15:41:00,
2013-09-22 10:46:00,77.5,64.8,29.78,North,5,6.0,8.9,65,0.00,,,0.00,689.0,meteobridge,2013-09-22 15:46:00,
2013-09-22 10:51:00,77.7,64.9,29.78,North,5,4.9,6.9,65,0.00,,,0.00,703.0,meteobridge,2013-09-22 15:51:00,
2013-09-22 10:56:00,78.3,65.5,29.78,NE,52,2.0,4.9,65,0.00,,,0.00,715.0,meteobridge,2013-09-22 15:56:00,
2013-09-22 11:01:00,78.4,66.6,29.79,North,5,4.9,6.9,67,0.00,,,0.00,728.0,meteobridge,2013-09-22 16:01:00,
2013-09-22 11:07:00,78.6,64.6,29.79,NE,52,2.9,10.1,62,0.00,,,0.00,740.0,meteobridge,2013-09-22 16:07:00,
2013-09-22 11:12:00,78.6,65.5,29.79,NE,35,2.9,6.0,64,0.00,,,0.00,749.0,meteobridge,2013-09-22 16:12:00,
2013-09-22 11:17:00,79.2,67.3,29.78,ENE,57,0.9,4.0,67,0.00,,,0.00,759.0,meteobridge,2013-09-22 16:17:00,
2013-09-22 11:22:00,79.3,66.0,29.78,ENE,57,4.9,8.1,64,0.00,,,0.00,770.0,meteobridge,2013-09-22 16:22:00,
2013-09-22 11:27:00,79.5,66.7,29.78,ENE,61,4.0,6.0,65,0.00,,,0.00,779.0,meteobridge,2013-09-22 16:27:00,
2013-09-22 11:32:00,79.9,66.6,29.78,NE,41,2.9,6.9,64,0.00,,,0.00,786.0,meteobridge,2013-09-22 16:32:00,
2013-09-22 11:37:00,79.5,67.1,29.78,NE,38,2.9,8.1,66,0.00,,,0.00,796.0,meteobridge,2013-09-22 16:37:00,
2013-09-22 11:42:00,80.1,67.6,29.78,NE,55,6.9,6.9,66,0.00,,,0.00,807.0,meteobridge,2013-09-22 16:42:00,
2013-09-22 11:47:00,80.8,67.5,29.78,NE,55,2.9,6.0,64,0.00,,,0.00,814.0,meteobridge,2013-09-22 16:47:00,
2013-09-22 11:52:00,80.1,66.4,29.78,NNE,15,6.9,12.1,63,0.00,,,0.00,821.0,meteobridge,2013-09-22 16:52:00,
2013-09-22 11:57:00,80.2,67.5,29.78,NE,49,2.0,6.9,65,0.00,,,0.00,830.0,meteobridge,2013-09-22 16:57:00,
2013-09-22 12:02:00,79.9,66.6,29.78,NE,41,4.0,8.9,64,0.00,,,0.00,831.0,meteobridge,2013-09-22 17:02:00,
2013-09-22 12:07:00,81.0,67.6,29.78,NE,36,4.0,8.1,64,0.00,,,0.00,840.0,meteobridge,2013-09-22 17:07:00,
2013-09-22 12:12:00,80.8,68.0,29.78,ENE,65,4.9,6.9,65,0.00,,,0.00,851.0,meteobridge,2013-09-22 17:12:00,
2013-09-22 12:17:00,81.3,68.4,29.78,NNE,19,2.9,6.0,65,0.00,,,0.00,840.0,meteobridge,2013-09-22 17:17:00,
2013-09-22 12:22:00,81.7,68.7,29.78,NE,53,4.0,6.9,65,0.00,,,0.00,888.0,meteobridge,2013-09-22 17:22:00,
2013-09-22 12:27:00,81.1,68.7,29.78,NNE,30,2.9,4.0,66,0.00,,,0.00,884.0,meteobridge,2013-09-22 17:27:00,
2013-09-22 12:32:00,81.3,68.0,29.78,NNE,22,4.0,8.1,64,0.00,,,0.00,909.0,meteobridge,2013-09-22 17:32:00,
2013-09-22 12:37:00,81.5,68.5,29.78,North,11,6.0,12.1,65,0.00,,,0.00,889.0,meteobridge,2013-09-22 17:37:00,
2013-09-22 12:43:00,81.9,68.9,29.78,NE,51,4.0,4.9,65,0.00,,,0.00,898.0,meteobridge,2013-09-22 17:43:00,
2013-09-22 12:48:00,82.2,68.9,29.78,NE,49,2.0,10.1,64,0.00,,,0.00,912.0,meteobridge,2013-09-22 17:48:00,
2013-09-22 12:53:00,81.9,68.9,29.78,NNE,28,2.9,6.9,65,0.00,,,0.00,909.0,meteobridge,2013-09-22 17:53:00,
2013-09-22 12:58:00,82.0,68.2,29.78,NNE,30,2.9,10.1,63,0.00,,,0.00,1002.0,meteobridge,2013-09-22 17:58:00,
2013-09-22 13:03:00,82.0,66.7,29.77,NNE,15,8.9,11.0,60,0.00,,,0.00,970.0,meteobridge,2013-09-22 18:03:00,
2013-09-22 13:08:00,82.0,69.1,29.77,NE,47,2.9,8.1,65,0.00,,,0.00,942.0,meteobridge,2013-09-22 18:08:00,
2013-09-22 13:13:00,82.4,67.1,29.77,NE,49,2.9,11.0,60,0.00,,,0.00,979.0,meteobridge,2013-09-22 18:13:00,
2013-09-22 13:18:00,82.2,66.9,29.77,NNE,21,10.1,14.1,60,0.00,,,0.00,998.0,meteobridge,2013-09-22 18:18:00,
2013-09-22 13:23:00,82.6,67.8,29.77,NE,44,4.0,8.1,61,0.00,,,0.00,923.0,meteobridge,2013-09-22 18:23:00,
2013-09-22 13:28:00,82.8,66.9,29.77,North,5,8.1,12.1,59,0.00,,,0.00,909.0,meteobridge,2013-09-22 18:28:00,
2013-09-22 13:33:00,83.1,67.8,29.76,North,10,10.1,11.0,60,0.00,,,0.00,991.0,meteobridge,2013-09-22 18:33:00,
2013-09-22 13:38:00,82.9,67.1,29.76,NE,44,4.9,10.1,59,0.00,,,0.00,888.0,meteobridge,2013-09-22 18:38:00,
2013-09-22 13:43:00,83.1,67.8,29.76,NNE,13,10.1,10.1,60,0.00,,,0.00,879.0,meteobridge,2013-09-22 18:43:00,
2013-09-22 13:48:00,83.5,67.6,29.75,NNE,13,6.0,11.0,59,0.00,,,0.00,900.0,meteobridge,2013-09-22 18:48:00,
2013-09-22 13:53:00,83.7,66.7,29.75,North,5,6.0,12.1,57,0.00,,,0.00,879.0,meteobridge,2013-09-22 18:53:00,
2013-09-22 13:58:00,83.8,68.0,29.75,NNE,22,8.1,12.1,59,0.00,,,0.00,879.0,meteobridge,2013-09-22 18:58:00,
2013-09-22 14:03:00,83.5,67.6,29.75,North,5,0.9,8.9,59,0.00,,,0.00,877.0,meteobridge,2013-09-22 19:03:00,
2013-09-22 14:08:00,84.7,68.4,29.75,NE,34,2.9,15.0,58,0.00,,,0.00,914.0,meteobridge,2013-09-22 19:08:00,
2013-09-22 14:13:00,84.6,67.6,29.75,NE,35,2.9,6.9,57,0.00,,,0.00,863.0,meteobridge,2013-09-22 19:13:00,
2013-09-22 14:18:00,84.4,66.9,29.74,North,355,8.1,11.0,56,0.00,,,0.00,868.0,meteobridge,2013-09-22 19:18:00,
2013-09-22 14:23:00,84.0,67.6,29.74,NNE,30,4.9,10.1,58,0.00,,,0.00,853.0,meteobridge,2013-09-22 19:23:00,
2013-09-22 14:28:00,84.6,68.2,29.74,NE,42,4.0,11.0,58,0.00,,,0.00,877.0,meteobridge,2013-09-22 19:28:00,
2013-09-22 14:33:00,84.6,67.1,29.73,NNE,24,4.0,12.1,56,0.00,,,0.00,828.0,meteobridge,2013-09-22 19:33:00,
2013-09-22 14:38:00,85.3,68.4,29.73,ENE,61,0.9,11.0,57,0.00,,,0.00,826.0,meteobridge,2013-09-22 19:38:00,
2013-09-22 14:43:00,85.3,66.7,29.73,North,9,10.1,12.1,54,0.00,,,0.00,812.0,meteobridge,2013-09-22 19:43:00,
2013-09-22 14:48:00,84.9,66.9,29.72,NNE,19,8.9,8.9,55,0.00,,,0.00,809.0,meteobridge,2013-09-22 19:48:00,
2013-09-22 14:53:00,84.9,66.4,29.72,NE,49,2.9,8.1,54,0.00,,,0.00,793.0,meteobridge,2013-09-22 19:53:00,
2013-09-22 14:58:00,84.7,66.2,29.72,North,350,8.1,8.1,54,0.00,,,0.00,784.0,meteobridge,2013-09-22 19:58:00,
2013-09-22 15:03:00,85.1,66.6,29.72,North,9,8.9,11.0,54,0.00,,,0.00,775.0,meteobridge,2013-09-22 20:03:00,
2013-09-22 15:09:00,85.5,65.8,29.72,NE,44,2.9,10.1,52,0.00,,,0.00,770.0,meteobridge,2013-09-22 20:09:00,
2013-09-22 15:13:00,84.9,66.4,29.72,NE,55,4.0,8.1,54,0.00,,,0.00,754.0,meteobridge,2013-09-22 20:13:00,
2013-09-22 15:18:00,84.9,65.3,29.71,NNE,24,6.9,14.1,52,0.00,,,0.00,744.0,meteobridge,2013-09-22 20:18:00,
2013-09-22 15:23:00,85.5,65.8,29.71,NNE,28,8.9,15.0,52,0.00,,,0.00,733.0,meteobridge,2013-09-22 20:23:00,
2013-09-22 15:29:00,85.6,64.9,29.71,NNE,32,6.0,10.1,50,0.00,,,0.00,726.0,meteobridge,2013-09-22 20:29:00,
2013-09-22 15:34:00,85.6,64.9,29.71,ENE,69,2.9,8.1,50,0.00,,,0.00,714.0,meteobridge,2013-09-22 20:34:00,
2013-09-22 15:39:00,85.3,64.6,29.71,NE,38,4.9,8.9,50,0.00,,,0.00,700.0,meteobridge,2013-09-22 20:39:00,
2013-09-22 15:44:00,85.5,63.5,29.71,NNE,13,8.1,10.1,48,0.00,,,0.00,689.0,meteobridge,2013-09-22 20:44:00,
2013-09-22 15:49:00,86.2,65.3,29.70,ENE,61,4.9,8.9,50,0.00,,,0.00,671.0,meteobridge,2013-09-22 20:49:00,
2013-09-22 15:54:00,85.3,65.1,29.70,ENE,59,4.0,6.9,51,0.00,,,0.00,657.0,meteobridge,2013-09-22 20:54:00,
2013-09-22 15:59:00,85.5,64.0,29.70,North,11,4.9,10.1,49,0.00,,,0.00,642.0,meteobridge,2013-09-22 20:59:00,
2013-09-22 16:04:00,86.4,66.0,29.69,NNE,32,6.0,8.1,51,0.00,,,0.00,628.0,meteobridge,2013-09-22 21:04:00,
2013-09-22 16:09:00,86.4,64.9,29.69,NNE,17,8.1,12.1,49,0.00,,,0.00,615.0,meteobridge,2013-09-22 21:09:00,
2013-09-22 16:14:00,85.8,63.3,29.69,NNE,17,6.9,12.1,47,0.00,,,0.00,603.0,meteobridge,2013-09-22 21:14:00,
2013-09-22 16:19:00,85.6,63.7,29.69,NNE,15,4.9,14.1,48,0.00,,,0.00,584.0,meteobridge,2013-09-22 21:19:00,
2013-09-22 16:24:00,85.8,64.4,29.69,NNE,24,4.9,10.1,49,0.00,,,0.00,570.0,meteobridge,2013-09-22 21:24:00,
2013-09-22 16:29:00,86.4,65.5,29.69,North,11,8.1,8.1,50,0.00,,,0.00,552.0,meteobridge,2013-09-22 21:29:00,
2013-09-22 16:34:00,86.5,64.6,29.69,NE,44,2.0,8.9,48,0.00,,,0.00,538.0,meteobridge,2013-09-22 21:34:00,
2013-09-22 16:39:00,85.8,63.9,29.69,NE,37,6.0,8.1,48,0.00,,,0.00,522.0,meteobridge,2013-09-22 21:39:00,
2013-09-22 16:44:00,85.6,63.1,29.68,NE,36,2.9,10.1,47,0.00,,,0.00,503.0,meteobridge,2013-09-22 21:44:00,
2013-09-22 16:49:00,86.0,64.0,29.68,NE,44,2.9,4.9,48,0.00,,,0.00,485.0,meteobridge,2013-09-22 21:49:00,
2013-09-22 16:54:00,85.8,63.3,29.68,East,82,6.0,8.1,47,0.00,,,0.00,471.0,meteobridge,2013-09-22 21:54:00,
2013-09-22 16:59:00,85.8,63.9,29.68,NNE,30,4.9,6.9,48,0.00,,,0.00,454.0,meteobridge,2013-09-22 21:59:00,
2013-09-22 17:04:00,86.0,64.0,29.68,NE,38,2.9,8.9,48,0.00,,,0.00,434.0,meteobridge,2013-09-22 22:04:00,
2013-09-22 17:09:00,85.6,61.9,29.68,NNE,12,10.1,12.1,45,0.00,,,0.00,417.0,meteobridge,2013-09-22 22:09:00,
2013-09-22 17:14:00,85.6,61.9,29.68,NE,46,4.9,10.1,45,0.00,,,0.00,401.0,meteobridge,2013-09-22 22:14:00,
2013-09-22 17:19:00,85.5,61.7,29.68,NE,40,2.9,10.1,45,0.00,,,0.00,383.0,meteobridge,2013-09-22 22:19:00,
2013-09-22 17:24:00,85.6,61.2,29.68,NNE,30,8.1,8.9,44,0.00,,,0.00,364.0,meteobridge,2013-09-22 22:24:00,
2013-09-22 17:29:00,85.6,61.9,29.68,North,11,8.9,8.9,45,0.00,,,0.00,345.0,meteobridge,2013-09-22 22:29:00,
2013-09-22 17:34:00,85.6,61.9,29.68,NNE,17,0.9,8.9,45,0.00,,,0.00,330.0,meteobridge,2013-09-22 22:34:00,
2013-09-22 17:39:00,85.5,61.0,29.68,NE,40,4.0,8.1,44,0.00,,,0.00,309.0,meteobridge,2013-09-22 22:39:00,
2013-09-22 17:44:00,85.3,61.0,29.68,NNE,13,2.9,6.9,44,0.00,,,0.00,290.0,meteobridge,2013-09-22 22:44:00,
2013-09-22 17:49:00,85.3,62.2,29.68,NNE,30,4.0,8.1,46,0.00,,,0.00,272.0,meteobridge,2013-09-22 22:49:00,
2013-09-22 17:54:00,85.3,61.0,29.68,NNE,31,2.9,8.1,44,0.00,,,0.00,253.0,meteobridge,2013-09-22 22:54:00,
2013-09-22 17:59:00,85.3,62.2,29.68,NNE,21,2.9,6.0,46,0.00,,,0.00,234.0,meteobridge,2013-09-22 22:59:00,
2013-09-22 18:04:00,84.9,61.2,29.68,NNE,24,6.0,6.0,45,0.00,,,0.00,214.0,meteobridge,2013-09-22 23:04:00,
2013-09-22 18:09:00,84.7,61.7,29.68,NNE,17,2.0,4.9,46,0.00,,,0.00,192.0,meteobridge,2013-09-22 23:09:00,
2013-09-22 18:14:00,84.6,60.3,29.68,NE,42,4.9,8.1,44,0.00,,,0.00,171.0,meteobridge,2013-09-22 23:14:00,
2013-09-22 18:19:00,84.4,61.9,29.68,NNE,17,0.9,4.0,47,0.00,,,0.00,146.0,meteobridge,2013-09-22 23:19:00,
2013-09-22 18:24:00,84.0,62.2,29.68,NNE,28,0.0,2.0,48,0.00,,,0.00,128.0,meteobridge,2013-09-22 23:24:00,
2013-09-22 18:30:00,83.7,61.3,29.69,NNE,17,2.0,6.9,47,0.00,,,0.00,63.0,meteobridge,2013-09-22 23:30:00,
2013-09-22 18:35:00,83.5,61.7,29.69,NNE,23,0.9,2.9,48,0.00,,,0.00,30.0,meteobridge,2013-09-22 23:35:00,
2013-09-22 18:40:00,83.1,61.3,29.69,NNE,14,6.9,6.9,48,0.00,,,0.00,25.0,meteobridge,2013-09-22 23:40:00,
2013-09-22 18:45:00,82.8,60.4,29.69,NNE,22,4.0,4.9,47,0.00,,,0.00,28.0,meteobridge,2013-09-22 23:45:00,
2013-09-22 18:50:00,82.6,60.3,29.69,North,11,4.0,6.0,47,0.00,,,0.00,39.0,meteobridge,2013-09-22 23:50:00,
2013-09-22 18:55:00,82.2,59.9,29.69,NNE,20,2.9,4.0,47,0.00,,,0.00,19.0,meteobridge,2013-09-22 23:55:00,
2013-09-22 19:00:00,81.9,60.3,29.69,NNE,19,2.9,4.9,48,0.00,,,0.00,18.0,meteobridge,2013-09-23 00:00:00,
2013-09-22 19:05:00,81.3,59.7,29.69,NNE,28,2.0,4.0,48,0.00,,,0.00,14.0,meteobridge,2013-09-23 00:05:00,
2013-09-22 19:10:00,81.0,60.1,29.69,NNE,31,2.9,4.0,49,0.00,,,0.00,12.0,meteobridge,2013-09-23 00:10:00,
2013-09-22 19:15:00,80.2,59.9,29.69,NNE,30,2.0,2.9,50,0.00,,,0.00,9.0,meteobridge,2013-09-23 00:15:00,
2013-09-22 19:20:00,79.9,60.1,29.69,NNE,30,0.9,4.0,51,0.00,,,0.00,5.0,meteobridge,2013-09-23 00:20:00,
2013-09-22 19:26:00,79.3,59.7,29.69,NNE,25,2.9,4.0,51,0.00,,,0.00,0.0,meteobridge,2013-09-23 00:26:00,
2013-09-22 19:31:00,78.6,59.5,29.70,NNE,29,2.9,4.0,52,0.00,,,0.00,0.0,meteobridge,2013-09-23 00:31:00,
2013-09-22 19:36:00,78.3,59.7,29.70,NNE,31,2.0,2.9,53,0.00,,,0.00,0.0,meteobridge,2013-09-23 00:36:00,
2013-09-22 19:41:00,78.1,60.1,29.70,NNE,31,0.9,2.9,54,0.00,,,0.00,0.0,meteobridge,2013-09-23 00:41:00,
2013-09-22 19:46:00,77.9,59.9,29.70,NNE,30,0.9,2.9,54,0.00,,,0.00,0.0,meteobridge,2013-09-23 00:46:00,
2013-09-22 19:51:00,77.5,60.1,29.70,NNE,30,2.9,2.9,55,0.00,,,0.00,0.0,meteobridge,2013-09-23 00:51:00,
2013-09-22 19:56:00,77.2,59.7,29.70,NNE,28,2.9,2.9,55,0.00,,,0.00,0.0,meteobridge,2013-09-23 00:56:00,
2013-09-22 20:01:00,77.2,60.8,29.70,NNE,29,0.0,0.9,57,0.00,,,0.00,0.0,meteobridge,2013-09-23 01:01:00,
2013-09-22 20:07:00,76.8,61.0,29.70,NNE,26,0.9,2.0,58,0.00,,,0.00,0.0,meteobridge,2013-09-23 01:07:00,
2013-09-22 20:12:00,76.6,60.8,29.70,NNE,26,2.0,2.0,58,0.00,,,0.00,0.0,meteobridge,2013-09-23 01:12:00,
2013-09-22 20:17:00,75.9,62.8,29.71,East,82,0.0,2.9,64,0.00,,,0.00,0.0,meteobridge,2013-09-23 01:17:00,
2013-09-22 20:22:00,75.4,63.7,29.71,East,82,0.0,0.9,67,0.00,,,0.00,0.0,meteobridge,2013-09-23 01:22:00,
2013-09-22 20:27:00,74.8,64.0,29.71,East,82,0.0,0.0,69,0.00,,,0.00,0.0,meteobridge,2013-09-23 01:27:00,
2013-09-22 20:33:00,74.3,63.9,29.71,East,82,0.0,0.0,70,0.00,,,0.00,0.0,meteobridge,2013-09-23 01:33:00,
2013-09-22 20:38:00,74.1,63.7,29.71,East,82,0.0,0.0,70,0.00,,,0.00,0.0,meteobridge,2013-09-23 01:38:00,
2013-09-22 20:43:00,74.1,64.0,29.71,East,82,0.0,0.0,71,0.00,,,0.00,0.0,meteobridge,2013-09-23 01:43:00,
2013-09-22 20:48:00,73.9,63.9,29.72,East,82,0.0,0.0,71,0.00,,,0.00,0.0,meteobridge,2013-09-23 01:48:00,
2013-09-22 20:53:00,73.9,64.4,29.72,East,82,0.0,0.0,72,0.00,,,0.00,0.0,meteobridge,2013-09-23 01:53:00,
2013-09-22 20:59:00,73.8,64.6,29.72,East,82,0.0,0.0,73,0.00,,,0.00,0.0,meteobridge,2013-09-23 01:59:00,
2013-09-22 21:04:00,73.4,64.2,29.72,East,82,0.0,0.0,73,0.00,,,0.00,0.0,meteobridge,2013-09-23 02:04:00,
2013-09-22 21:09:00,73.2,64.4,29.72,East,82,0.0,0.0,74,0.00,,,0.00,0.0,meteobridge,2013-09-23 02:09:00,
2013-09-22 21:14:00,73.2,64.4,29.72,East,94,0.0,0.0,74,0.00,,,0.00,0.0,meteobridge,2013-09-23 02:14:00,
2013-09-22 21:19:00,73.6,65.5,29.73,East,101,0.0,0.0,76,0.00,,,0.00,0.0,meteobridge,2013-09-23 02:19:00,
2013-09-22 21:24:00,73.8,65.7,29.73,East,99,0.0,0.0,76,0.00,,,0.00,0.0,meteobridge,2013-09-23 02:24:00,
2013-09-22 21:29:00,73.8,66.4,29.74,ESE,108,0.0,0.0,78,0.00,,,0.00,0.0,meteobridge,2013-09-23 02:29:00,
2013-09-22 21:34:00,73.8,66.9,29.74,ESE,102,0.0,0.0,79,0.00,,,0.00,0.0,meteobridge,2013-09-23 02:34:00,
2013-09-22 21:39:00,73.6,67.5,29.74,East,101,0.0,0.0,81,0.00,,,0.00,0.0,meteobridge,2013-09-23 02:39:00,
2013-09-22 21:44:00,73.2,67.5,29.74,East,100,0.0,0.0,82,0.00,,,0.00,0.0,meteobridge,2013-09-23 02:44:00,
2013-09-22 21:49:00,73.0,67.6,29.74,East,98,0.0,0.0,83,0.00,,,0.00,0.0,meteobridge,2013-09-23 02:49:00,
2013-09-22 21:54:00,73.0,67.6,29.74,East,98,0.0,0.0,83,0.00,,,0.00,0.0,meteobridge,2013-09-23 02:54:00,
2013-09-22 21:59:00,72.9,67.5,29.74,East,98,0.0,0.0,83,0.00,,,0.00,0.0,meteobridge,2013-09-23 02:59:00,
2013-09-22 22:05:00,72.9,67.5,29.74,East,90,0.0,0.0,83,0.00,,,0.00,0.0,meteobridge,2013-09-23 03:05:00,
2013-09-22 22:10:00,72.9,67.5,29.74,East,90,0.0,0.0,83,0.00,,,0.00,0.0,meteobridge,2013-09-23 03:10:00,
2013-09-22 22:15:00,72.7,67.3,29.74,East,90,0.0,0.0,83,0.00,,,0.00,0.0,meteobridge,2013-09-23 03:15:00,
2013-09-22 22:20:00,72.7,67.3,29.74,East,90,0.0,0.0,83,0.00,,,0.00,0.0,meteobridge,2013-09-23 03:20:00,
2013-09-22 22:25:00,72.5,67.1,29.74,East,93,0.0,0.0,83,0.00,,,0.00,0.0,meteobridge,2013-09-23 03:25:00,
2013-09-22 22:30:00,72.3,66.9,29.74,East,96,0.0,0.0,83,0.00,,,0.00,0.0,meteobridge,2013-09-23 03:30:00,
2013-09-22 22:36:00,72.3,66.9,29.74,East,93,0.0,0.0,83,0.00,,,0.00,0.0,meteobridge,2013-09-23 03:36:00,
2013-09-22 22:41:00,72.1,66.7,29.74,East,93,0.0,0.0,83,0.00,,,0.00,0.0,meteobridge,2013-09-23 03:41:00,
2013-09-22 22:46:00,72.1,66.7,29.73,East,93,0.0,0.0,83,0.00,,,0.00,0.0,meteobridge,2013-09-23 03:46:00,
2013-09-22 22:51:00,72.0,66.6,29.73,East,93,0.0,0.0,83,0.00,,,0.00,0.0,meteobridge,2013-09-23 03:51:00,
2013-09-22 22:56:00,71.8,66.4,29.73,East,93,0.0,0.0,83,0.00,,,0.00,0.0,meteobridge,2013-09-23 03:56:00,
2013-09-22 23:01:00,71.2,66.2,29.73,East,93,0.0,0.0,84,0.00,,,0.00,0.0,meteobridge,2013-09-23 04:01:00,
2013-09-22 23:02:00,71.2,66.2,29.73,East,93,0.0,0.0,84,0.00,,,0.00,0.0,meteobridge,2013-09-23 04:02:00,
2013-09-22 23:03:00,71.2,66.2,29.73,East,93,0.0,0.0,84,0.00,,,0.00,0.0,meteobridge,2013-09-23 04:03:00,
2013-09-22 23:08:00,70.9,66.2,29.73,East,93,0.0,0.0,85,0.00,,,0.00,0.0,meteobridge,2013-09-23 04:08:00,
2013-09-22 23:13:00,70.7,66.0,29.73,East,93,0.0,0.0,85,0.00,,,0.00,0.0,meteobridge,2013-09-23 04:13:00,
2013-09-22 23:19:00,70.5,65.8,29.73,East,93,0.0,0.0,85,0.00,,,0.00,0.0,meteobridge,2013-09-23 04:19:00,
2013-09-22 23:24:00,70.3,65.7,29.73,East,93,0.0,0.0,85,0.00,,,0.00,0.0,meteobridge,2013-09-23 04:24:00,
2013-09-22 23:29:00,70.3,65.7,29.73,East,93,0.0,0.0,85,0.00,,,0.00,0.0,meteobridge,2013-09-23 04:29:00,
2013-09-22 23:34:00,70.2,65.8,29.73,East,93,0.0,0.0,86,0.00,,,0.00,0.0,meteobridge,2013-09-23 04:34:00,
2013-09-22 23:39:00,70.2,65.8,29.73,East,93,0.0,0.0,86,0.00,,,0.00,0.0,meteobridge,2013-09-23 04:39:00,
2013-09-22 23:44:00,70.2,65.8,29.73,East,93,0.0,0.0,86,0.00,,,0.00,0.0,meteobridge,2013-09-23 04:44:00,
2013-09-22 23:50:00,70.2,66.0,29.73,East,93,0.0,0.0,87,0.00,,,0.00,0.0,meteobridge,2013-09-23 04:50:00,
2013-09-22 23:55:00,70.2,66.0,29.73,East,93,0.0,0.0,87,0.00,,,0.00,0.0,meteobridge,2013-09-23 04:55:00,